Time;durP1;ratioP1;P1;durP2;ratioP2;P2;SDS_P1;SDS_P2;PMS_P1;PMS_P2;Temp;Humidity;BMP_temperature;BMP_pressure;BME280_temperature;BME280_humidity;BME280_pressure;Samples;Min_cycle;Max_cycle;Signal;HPM_P1;HPM_P2
2021/08/04 00:02:03;;;;;;;13.30;8.70;;;16.80;46.60;;;;;;4990615;28;20517;-75
2021/08/04 00:04:29;;;;;;;10.33;8.40;;;16.80;45.70;;;;;;4989455;28;20414;-76
2021/08/04 00:06:55;;;;;;;12.03;8.53;;;17.00;44.70;;;;;;4991668;28;20422;-76
2021/08/04 00:09:20;;;;;;;16.65;9.15;;;17.20;43.30;;;;;;4993913;28;20410;-76
2021/08/04 00:11:46;;;;;;;15.50;9.15;;;17.30;42.60;;;;;;4993246;28;20391;-75
2021/08/04 00:14:12;;;;;;;11.87;8.33;;;17.10;43.10;;;;;;4992620;28;20445;-76
2021/08/04 00:16:37;;;;;;;12.50;8.60;;;16.90;44.50;;;;;;4993419;28;20541;-76
2021/08/04 00:19:03;;;;;;;11.07;8.83;;;16.90;45.10;;;;;;4992513;28;20391;-76
2021/08/04 00:21:30;;;;;;;11.50;8.57;;;16.90;44.80;;;;;;4993604;28;20405;-76
2021/08/04 00:23:56;;;;;;;13.80;8.90;;;16.90;44.30;;;;;;4996324;28;20406;-77
2021/08/04 00:26:21;;;;;;;13.85;8.75;;;17.10;43.70;;;;;;5000728;28;20426;-77
2021/08/04 00:28:47;;;;;;;11.00;8.67;;;17.00;44.00;;;;;;5000531;28;20457;-76
2021/08/04 00:31:13;;;;;;;13.33;8.80;;;17.00;44.30;;;;;;5001608;28;20421;-76
2021/08/04 00:33:38;;;;;;;9.17;7.90;;;17.00;44.10;;;;;;5001488;28;20398;-75
2021/08/04 00:36:04;;;;;;;10.38;8.07;;;17.00;44.20;;;;;;5000638;28;20394;-76
2021/08/04 00:38:29;;;;;;;9.30;8.40;;;16.90;44.70;;;;;;4999833;28;20418;-76
2021/08/04 00:40:55;;;;;;;12.88;8.90;;;16.90;45.40;;;;;;5000762;28;20409;-77
2021/08/04 00:43:22;;;;;;;12.77;8.60;;;16.70;46.20;;;;;;5001049;28;20398;-76
2021/08/04 00:45:47;;;;;;;10.63;8.80;;;16.60;46.60;;;;;;4999749;28;20394;-75
2021/08/04 00:48:13;;;;;;;15.40;9.60;;;16.50;47.50;;;;;;4992126;28;20421;-75
2021/08/04 00:50:39;;;;;;;14.10;9.07;;;16.40;48.50;;;;;;5000461;28;20406;-74
2021/08/04 00:53:23;;;;;;;13.48;9.73;;;16.30;49.50;;;;;;5000162;28;20406;-75
2021/08/04 00:55:51;;;;;;;14.35;10.10;;;16.10;50.90;;;;;;4999868;28;20398;-76
2021/08/04 00:58:20;;;;;;;16.50;9.57;;;15.70;53.00;;;;;;4999873;28;20405;-75
2021/08/04 01:00:50;;;;;;;11.95;9.82;;;15.50;55.90;;;;;;4997377;28;20887;-76
2021/08/04 01:03:19;;;;;;;14.88;9.75;;;15.20;58.80;;;;;;4998468;28;20394;-75
2021/08/04 01:05:51;;;;;;;13.50;10.45;;;15.20;60.00;;;;;;4999741;28;20390;-74
2021/08/04 01:08:22;;;;;;;13.75;10.40;;;15.00;61.00;;;;;;4999848;28;20422;-74
2021/08/04 01:10:51;;;;;;;12.85;10.05;;;14.90;62.80;;;;;;4993963;28;20395;-75
2021/08/04 01:13:31;;;;;;;16.20;10.15;;;14.90;63.50;;;;;;4993653;28;20398;-75
2021/08/04 01:16:00;;;;;;;14.13;10.10;;;14.80;64.80;;;;;;4995405;28;20799;-75
2021/08/04 01:18:30;;;;;;;15.07;10.07;;;14.70;66.50;;;;;;4995028;28;20493;-75
2021/08/04 01:20:56;;;;;;;10.93;9.82;;;14.60;68.50;;;;;;4992976;28;20398;-76
2021/08/04 01:23:39;;;;;;;13.45;10.10;;;14.60;68.80;;;;;;4992383;28;20737;-75
2021/08/04 01:26:37;;;;;;;15.15;10.30;;;14.60;70.30;;;;;;4993651;28;20402;-75
2021/08/04 01:29:04;;;;;;;12.95;10.00;;;14.50;70.00;;;;;;4993470;28;20382;-75
2021/08/04 01:31:33;;;;;;;17.42;10.50;;;14.40;71.80;;;;;;4994196;28;20393;-76
2021/08/04 01:33:59;;;;;;;12.65;10.32;;;14.40;71.90;;;;;;4994065;28;20382;-75
2021/08/04 01:36:25;;;;;;;15.15;10.38;;;14.40;72.70;;;;;;4993921;28;20390;-75
2021/08/04 01:38:53;;;;;;;14.52;11.18;;;14.40;71.50;;;;;;4994166;28;20906;-75
2021/08/04 01:41:19;;;;;;;15.93;11.20;;;14.40;72.70;;;;;;4995110;28;20395;-77
2021/08/04 01:43:46;;;;;;;17.00;10.50;;;14.50;73.60;;;;;;5009549;28;20760;-76
2021/08/04 01:46:14;;;;;;;14.95;10.00;;;14.90;66.60;;;;;;5010811;28;20398;-75
2021/08/04 01:48:41;;;;;;;13.70;10.50;;;15.10;62.20;;;;;;4995347;28;20431;-75
2021/08/04 01:51:08;;;;;;;12.90;10.68;;;15.00;63.10;;;;;;4995143;28;20388;-75
2021/08/04 01:53:35;;;;;;;14.45;9.85;;;15.10;61.80;;;;;;4996433;28;20478;-75
2021/08/04 01:56:01;;;;;;;12.65;9.90;;;15.20;60.20;;;;;;4996433;28;20421;-74
2021/08/04 01:58:27;;;;;;;17.05;11.55;;;15.10;60.80;;;;;;4996377;28;20401;-75
2021/08/04 02:00:53;;;;;;;16.02;10.50;;;15.00;61.70;;;;;;5013445;28;20485;-74
2021/08/04 02:03:18;;;;;;;15.38;10.55;;;14.90;63.60;;;;;;4996351;28;20397;-75
2021/08/04 02:05:46;;;;;;;13.60;11.00;;;14.80;64.70;;;;;;4995883;28;20418;-76
2021/08/04 02:08:26;;;;;;;14.27;10.53;;;14.90;63.50;;;;;;4995436;28;20410;-76
2021/08/04 02:11:27;;;;;;;19.73;11.07;;;14.80;64.40;;;;;;4995666;28;20393;-76
2021/08/04 02:14:27;;;;;;;13.75;10.40;;;14.90;63.20;;;;;;4993546;28;20860;-76
2021/08/04 02:17:13;;;;;;;12.93;10.15;;;14.90;62.40;;;;;;5007906;28;20755;-75
2021/08/04 02:19:50;;;;;;;16.58;10.90;;;15.00;61.70;;;;;;4993521;28;20481;-76
2021/08/04 02:22:30;;;;;;;17.30;12.02;;;14.90;61.70;;;;;;4992803;28;20505;-76
2021/08/04 02:25:07;;;;;;;14.10;11.45;;;14.60;64.90;;;;;;4992685;28;20394;-76
2021/08/04 02:27:36;;;;;;;16.25;10.98;;;14.40;69.10;;;;;;4992784;28;20418;-75
2021/08/04 02:30:03;;;;;;;14.50;11.10;;;14.30;70.90;;;;;;4992787;28;20425;-76
2021/08/04 02:32:29;;;;;;;14.68;11.57;;;14.30;71.60;;;;;;4993944;28;20444;-75
2021/08/04 02:34:55;;;;;;;15.00;11.20;;;14.40;70.90;;;;;;5011933;28;20390;-75
2021/08/04 02:37:21;;;;;;;13.48;10.60;;;14.40;70.60;;;;;;5011369;28;20402;-75
2021/08/04 02:39:47;;;;;;;21.85;11.80;;;14.20;70.80;;;;;;4999527;28;20402;-77
2021/08/04 02:42:12;;;;;;;16.77;11.77;;;14.10;73.00;;;;;;4999282;28;20477;-76
2021/08/04 02:44:38;;;;;;;13.25;11.25;;;14.00;75.10;;;;;;4996367;28;20460;-75
2021/08/04 02:47:04;;;;;;;14.55;11.13;;;13.80;76.60;;;;;;4997345;28;20456;-76
2021/08/04 02:49:29;;;;;;;15.68;11.20;;;13.70;78.30;;;;;;4996783;28;20386;-77
2021/08/04 02:51:56;;;;;;;16.10;11.90;;;13.70;80.20;;;;;;5011753;28;20506;-76
2021/08/04 02:54:22;;;;;;;17.40;12.50;;;13.70;80.00;;;;;;5011506;28;20402;-76
2021/08/04 02:56:48;;;;;;;15.60;12.23;;;13.60;80.60;;;;;;4997070;28;20393;-77
2021/08/04 02:59:14;;;;;;;18.40;11.20;;;13.50;81.70;;;;;;4997363;28;20394;-76
2021/08/04 03:01:39;;;;;;;14.30;10.68;;;13.50;82.60;;;;;;4996845;28;20391;-75
2021/08/04 03:04:05;;;;;;;15.00;11.18;;;13.40;83.40;;;;;;4997536;28;20425;-75
2021/08/04 03:06:30;;;;;;;18.10;11.48;;;13.40;84.00;;;;;;4998265;28;20436;-75
2021/08/04 03:08:56;;;;;;;14.13;11.07;;;13.40;84.60;;;;;;4998517;28;21021;-76
2021/08/04 03:11:22;;;;;;;14.98;11.40;;;13.40;85.40;;;;;;4996573;28;20391;-76
2021/08/04 03:13:47;;;;;;;22.27;11.80;;;13.40;85.50;;;;;;4997625;28;20410;-74
2021/08/04 03:16:13;;;;;;;16.50;11.80;;;13.30;86.10;;;;;;4994405;28;20398;-75
2021/08/04 03:18:38;;;;;;;18.77;12.80;;;13.30;86.70;;;;;;4994817;28;20695;-75
2021/08/04 03:21:04;;;;;;;16.57;11.70;;;13.30;87.00;;;;;;4994868;28;20397;-75
2021/08/04 03:23:29;;;;;;;17.17;12.77;;;13.30;88.20;;;;;;4994342;28;20540;-75
2021/08/04 03:25:55;;;;;;;20.38;13.27;;;13.20;88.00;;;;;;4994481;28;20445;-75
2021/08/04 03:28:21;;;;;;;17.52;12.15;;;13.20;88.20;;;;;;4993930;28;20417;-74
2021/08/04 03:30:46;;;;;;;17.38;13.20;;;13.20;88.60;;;;;;4994075;28;20391;-74
2021/08/04 03:33:12;;;;;;;16.33;12.45;;;13.20;89.50;;;;;;4993857;28;20890;-74
2021/08/04 03:35:37;;;;;;;16.27;12.50;;;13.20;89.60;;;;;;4993943;28;20409;-74
2021/08/04 03:38:03;;;;;;;16.85;12.77;;;13.20;89.50;;;;;;4993670;28;20418;-74
2021/08/04 03:40:29;;;;;;;18.33;12.93;;;13.20;89.50;;;;;;4993912;28;20394;-75
2021/08/04 03:42:55;;;;;;;20.67;14.60;;;13.20;90.10;;;;;;4993830;28;20398;-75
2021/08/04 03:45:20;;;;;;;18.77;13.50;;;13.20;90.40;;;;;;4993284;28;20410;-75
2021/08/04 03:47:46;;;;;;;16.02;12.40;;;13.10;90.70;;;;;;5008908;28;20441;-75
2021/08/04 03:50:11;;;;;;;16.05;12.18;;;13.10;91.00;;;;;;4993736;28;20389;-75
2021/08/04 03:52:41;;;;;;;20.53;12.60;;;13.00;90.70;;;;;;4993780;28;20425;-75
2021/08/04 03:55:07;;;;;;;17.27;11.88;;;13.20;90.80;;;;;;4993326;28;20386;-75
2021/08/04 03:57:32;;;;;;;20.13;12.20;;;13.30;91.10;;;;;;4993550;28;20387;-75
2021/08/04 03:59:58;;;;;;;17.33;12.30;;;13.20;89.00;;;;;;4993383;28;20952;-75
2021/08/04 04:02:24;;;;;;;17.65;12.00;;;13.20;89.20;;;;;;4993670;28;20386;-74
2021/08/04 04:04:49;;;;;;;14.45;11.82;;;13.20;89.00;;;;;;4993295;28;20509;-75
2021/08/04 04:07:16;;;;;;;19.17;12.70;;;13.10;89.80;;;;;;4993006;28;20497;-76
2021/08/04 04:09:42;;;;;;;25.25;14.00;;;13.10;90.20;;;;;;5008431;28;20390;-74
2021/08/04 04:12:08;;;;;;;18.60;12.70;;;13.10;90.30;;;;;;4993203;28;20390;-74
2021/08/04 04:14:33;;;;;;;24.70;13.33;;;13.20;89.80;;;;;;4992970;28;20398;-75
2021/08/04 04:16:59;;;;;;;18.40;12.80;;;13.10;89.60;;;;;;4992778;28;20391;-75
2021/08/04 04:19:24;;;;;;;19.30;13.40;;;13.10;89.80;;;;;;4993684;28;20391;-74
2021/08/04 04:21:50;;;;;;;18.75;14.20;;;13.10;90.00;;;;;;4993060;28;20887;-74
2021/08/04 04:24:15;;;;;;;20.33;13.90;;;13.10;90.20;;;;;;4992482;28;20394;-73
2021/08/04 04:26:41;;;;;;;20.40;14.57;;;13.10;90.30;;;;;;4992429;28;20410;-75
2021/08/04 04:29:07;;;;;;;17.50;13.80;;;13.10;89.60;;;;;;4992672;28;20926;-75
2021/08/04 04:31:32;;;;;;;20.87;14.13;;;13.10;90.00;;;;;;4992800;28;20391;-75
2021/08/04 04:33:58;;;;;;;21.50;14.23;;;13.20;90.40;;;;;;4992537;28;20390;-73
2021/08/04 04:36:24;;;;;;;16.90;13.20;;;13.40;89.00;;;;;;4992576;28;20506;-73
2021/08/04 04:38:49;;;;;;;19.47;13.53;;;13.60;86.20;;;;;;4992419;28;20389;-73
2021/08/04 04:41:15;;;;;;;18.67;13.37;;;13.60;85.90;;;;;;4992691;28;20894;-74
2021/08/04 04:43:41;;;;;;;18.50;12.20;;;13.80;85.70;;;;;;4992234;28;20393;-75
2021/08/04 04:46:07;;;;;;;19.70;13.20;;;13.90;85.10;;;;;;4992431;28;20386;-75
2021/08/04 04:48:33;;;;;;;17.33;12.60;;;14.00;83.20;;;;;;4992275;28;20477;-75
2021/08/04 04:50:59;;;;;;;15.43;12.37;;;14.10;82.20;;;;;;4992976;28;20390;-75
2021/08/04 04:53:24;;;;;;;18.50;12.30;;;14.20;79.80;;;;;;5007886;28;20390;-75
2021/08/04 04:55:50;;;;;;;14.40;11.63;;;14.30;78.00;;;;;;4991795;28;20506;-75
2021/08/04 04:58:15;;;;;;;15.57;11.98;;;14.40;76.50;;;;;;4992574;28;20390;-75
2021/08/04 05:00:41;;;;;;;20.58;12.95;;;14.50;73.50;;;;;;4992226;28;20828;-74
2021/08/04 05:03:06;;;;;;;15.90;12.30;;;14.60;71.80;;;;;;4992127;28;20436;-75
2021/08/04 05:05:32;;;;;;;16.77;11.87;;;14.80;70.10;;;;;;4986197;28;20403;-74
2021/08/04 05:07:58;;;;;;;16.10;11.60;;;14.90;69.30;;;;;;4971051;28;20901;-73
2021/08/04 05:10:23;;;;;;;18.47;12.87;;;15.10;67.70;;;;;;4972491;28;20428;-75
2021/08/04 05:12:49;;;;;;;23.10;13.40;;;15.20;66.00;;;;;;4973414;28;20388;-74
2021/08/04 05:15:14;;;;;;;17.08;12.98;;;15.30;66.60;;;;;;4974834;28;20843;-75
2021/08/04 05:17:40;;;;;;;13.00;11.65;;;15.40;64.50;;;;;;4974688;28;20396;-75
2021/08/04 05:20:07;;;;;;;16.67;12.60;;;15.50;63.50;;;;;;4987856;28;20427;-74
2021/08/04 05:22:32;;;;;;;16.67;12.50;;;15.60;63.40;;;;;;4972414;28;20424;-74
2021/08/04 05:24:58;;;;;;;17.50;11.63;;;15.80;60.60;;;;;;4971950;28;20396;-74
2021/08/04 05:27:23;;;;;;;14.23;11.90;;;16.00;59.00;;;;;;4971961;28;20418;-75
2021/08/04 05:29:49;;;;;;;19.63;12.20;;;16.00;58.70;;;;;;4971962;28;20384;-74
2021/08/04 05:32:14;;;;;;;18.50;12.65;;;16.10;58.40;;;;;;4972022;28;20388;-74
2021/08/04 05:34:40;;;;;;;16.93;11.70;;;16.10;57.40;;;;;;4971989;28;20434;-74
2021/08/04 05:37:06;;;;;;;22.10;12.90;;;16.00;57.70;;;;;;4971751;28;20838;-74
2021/08/04 05:39:31;;;;;;;17.63;12.50;;;16.00;58.20;;;;;;4971848;28;20403;-75
2021/08/04 05:41:57;;;;;;;16.83;12.55;;;16.00;57.90;;;;;;4970361;28;20395;-74
2021/08/04 05:44:22;;;;;;;21.90;13.35;;;16.00;57.80;;;;;;4971674;28;20399;-75
2021/08/04 05:46:48;;;;;;;20.87;13.43;;;15.80;57.90;;;;;;4971694;28;20408;-75
2021/08/04 05:49:14;;;;;;;18.17;13.53;;;15.70;58.90;;;;;;4971684;28;20878;-74
2021/08/04 05:51:39;;;;;;;18.10;13.23;;;15.70;59.50;;;;;;4971550;28;20395;-73
2021/08/04 05:54:05;;;;;;;20.13;14.27;;;15.70;59.60;;;;;;4971663;28;20436;-73
2021/08/04 05:56:30;;;;;;;19.10;13.50;;;15.80;59.40;;;;;;4971653;28;20392;-74
2021/08/04 05:58:56;;;;;;;18.05;13.48;;;15.90;59.40;;;;;;4993438;28;20389;-74
2021/08/04 06:01:22;;;;;;;17.83;13.20;;;16.00;57.70;;;;;;5010615;28;20895;-74
2021/08/04 06:03:47;;;;;;;18.90;14.83;;;16.10;56.80;;;;;;5010681;28;20391;-73
2021/08/04 06:06:13;;;;;;;18.40;13.63;;;16.30;55.80;;;;;;4985762;28;20428;-75
2021/08/04 06:08:38;;;;;;;18.20;14.13;;;16.30;55.70;;;;;;4988420;28;20395;-74
2021/08/04 06:11:04;;;;;;;18.47;13.20;;;16.30;55.50;;;;;;4990477;28;20408;-73
2021/08/04 06:13:29;;;;;;;17.47;12.40;;;16.50;54.00;;;;;;4975647;28;20399;-73
2021/08/04 06:15:55;;;;;;;18.30;12.90;;;16.70;52.30;;;;;;4975810;28;20396;-74
2021/08/04 06:18:20;;;;;;;15.52;13.20;;;16.70;52.70;;;;;;4975970;28;20400;-74
2021/08/04 06:20:47;;;;;;;17.67;13.38;;;16.70;52.60;;;;;;4975463;28;20399;-75
2021/08/04 06:23:12;;;;;;;17.50;13.25;;;16.80;51.80;;;;;;4975421;28;20427;-74
2021/08/04 06:25:38;;;;;;;19.13;13.25;;;16.90;51.80;;;;;;4974819;28;20435;-75
2021/08/04 06:28:04;;;;;;;21.90;13.47;;;17.00;50.60;;;;;;4973664;28;20499;-75
2021/08/04 06:30:29;;;;;;;18.20;13.18;;;17.10;50.20;;;;;;4975185;28;20384;-74
2021/08/04 06:32:55;;;;;;;18.47;13.23;;;17.10;49.40;;;;;;4975064;28;20749;-74
2021/08/04 06:35:21;;;;;;;16.70;12.70;;;17.20;48.90;;;;;;4974976;28;20853;-73
2021/08/04 06:37:46;;;;;;;19.77;15.10;;;17.20;48.40;;;;;;4975111;28;20395;-73
2021/08/04 06:40:13;;;;;;;20.50;13.90;;;17.30;47.70;;;;;;4975438;28;20914;-73
2021/08/04 06:42:38;;;;;;;22.05;13.32;;;17.40;47.30;;;;;;4975456;28;20399;-74
2021/08/04 06:45:05;;;;;;;19.77;14.10;;;17.50;47.40;;;;;;4988383;28;20880;-74
2021/08/04 06:47:30;;;;;;;22.80;14.27;;;17.50;46.40;;;;;;4994422;28;20938;-74
2021/08/04 06:49:56;;;;;;;21.75;14.90;;;17.60;45.30;;;;;;4994199;28;20418;-74
2021/08/04 06:52:22;;;;;;;20.97;15.70;;;17.80;45.70;;;;;;4994279;28;20398;-74
2021/08/04 06:54:47;;;;;;;20.60;15.53;;;17.80;45.60;;;;;;4994529;28;20390;-73
2021/08/04 06:57:13;;;;;;;18.13;13.88;;;17.90;44.90;;;;;;4994221;28;20398;-74
2021/08/04 06:59:38;;;;;;;18.70;14.88;;;17.90;44.50;;;;;;4994243;28;20394;-74
2021/08/04 07:02:04;;;;;;;19.63;14.60;;;18.00;44.00;;;;;;4994206;28;20410;-76
2021/08/04 07:04:30;;;;;;;22.90;15.45;;;18.10;43.70;;;;;;4994310;28;20490;-73
2021/08/04 07:06:58;;;;;;;21.55;16.17;;;18.10;43.60;;;;;;4992037;28;20416;-74
2021/08/04 07:09:24;;;;;;;22.20;15.68;;;18.20;43.60;;;;;;4974377;28;20416;-74
2021/08/04 07:11:50;;;;;;;21.53;16.70;;;18.30;43.20;;;;;;4974849;28;20993;-74
2021/08/04 07:14:19;;;;;;;24.20;16.63;;;18.40;42.90;;;;;;4974550;28;20900;-74
2021/08/04 07:16:46;;;;;;;20.50;16.37;;;18.50;41.20;;;;;;4974369;28;20392;-75
2021/08/04 07:19:11;;;;;;;19.85;16.23;;;18.60;41.30;;;;;;4973387;28;20872;-75
2021/08/04 07:21:38;;;;;;;21.97;16.43;;;18.60;41.00;;;;;;4974439;28;20420;-75
2021/08/04 07:24:06;;;;;;;25.63;16.65;;;18.80;39.60;;;;;;4974265;28;20419;-75
2021/08/04 07:26:31;;;;;;;24.70;17.65;;;19.10;39.00;;;;;;4974162;28;20762;-74
2021/08/04 07:28:57;;;;;;;21.50;16.33;;;19.30;37.40;;;;;;4974061;28;20391;-74
2021/08/04 07:31:24;;;;;;;24.45;18.02;;;19.20;37.70;;;;;;4975306;28;20396;-77
2021/08/04 07:33:50;;;;;;;24.23;15.73;;;19.10;37.50;;;;;;4978180;28;20489;-76
2021/08/04 07:36:15;;;;;;;23.77;15.82;;;19.20;37.70;;;;;;4973988;28;20446;-75
2021/08/04 07:38:41;;;;;;;21.47;15.70;;;19.80;35.30;;;;;;4975090;28;20866;-76
2021/08/04 07:41:07;;;;;;;24.08;16.30;;;20.10;34.70;;;;;;4974816;28;20388;-76
2021/08/04 07:43:32;;;;;;;19.35;16.80;;;20.10;34.10;;;;;;4975324;28;20396;-76
2021/08/04 07:45:58;;;;;;;25.40;17.42;;;19.90;34.90;;;;;;4995730;28;20482;-75
2021/08/04 07:48:24;;;;;;;25.87;17.90;;;19.80;35.50;;;;;;4993371;28;20407;-75
2021/08/04 07:50:49;;;;;;;30.20;18.97;;;19.50;36.30;;;;;;5009840;28;20890;-75
2021/08/04 07:53:15;;;;;;;26.55;18.42;;;19.50;36.50;;;;;;4993829;28;20382;-74
2021/08/04 07:55:40;;;;;;;26.48;18.27;;;19.50;36.50;;;;;;4992976;28;20383;-75
2021/08/04 07:58:06;;;;;;;26.90;19.63;;;19.70;35.40;;;;;;4992503;28;20390;-76
2021/08/04 08:00:32;;;;;;;26.65;18.50;;;20.10;33.00;;;;;;5008008;28;20417;-75
2021/08/04 08:02:58;;;;;;;26.35;17.60;;;20.20;32.40;;;;;;4992641;28;20399;-75
2021/08/04 08:05:23;;;;;;;28.77;19.85;;;20.30;32.50;;;;;;4992533;28;20390;-75
2021/08/04 08:07:50;;;;;;;30.10;20.57;;;20.10;32.20;;;;;;4992314;28;20485;-75
2021/08/04 08:10:18;;;;;;;26.20;20.48;;;20.00;32.60;;;;;;4992619;28;20469;-74
2021/08/04 08:12:44;;;;;;;27.35;19.40;;;20.00;33.10;;;;;;4992745;28;20391;-75
2021/08/04 08:15:11;;;;;;;31.27;21.33;;;19.80;34.30;;;;;;5007474;28;20417;-75
2021/08/04 08:17:36;;;;;;;34.60;22.10;;;19.80;34.50;;;;;;4992413;28;20946;-75
2021/08/04 08:20:04;;;;;;;30.80;22.17;;;19.70;34.30;;;;;;4992695;28;20398;-75
2021/08/04 08:22:29;;;;;;;27.13;21.40;;;19.60;34.70;;;;;;4992566;28;20477;-75
2021/08/04 08:24:55;;;;;;;35.80;22.67;;;19.60;34.80;;;;;;4992383;28;20477;-75
2021/08/04 08:27:20;;;;;;;34.17;20.50;;;19.70;34.60;;;;;;4991811;28;20421;-75
2021/08/04 08:29:46;;;;;;;29.17;20.37;;;20.10;33.00;;;;;;4991915;28;20441;-75
2021/08/04 08:32:11;;;;;;;29.37;21.60;;;20.10;32.80;;;;;;4992392;28;20405;-75
2021/08/04 08:34:37;;;;;;;35.53;22.55;;;20.20;32.70;;;;;;4992834;28;20384;-75
2021/08/04 08:37:03;;;;;;;34.40;22.30;;;20.20;32.30;;;;;;4992320;28;20872;-75
2021/08/04 08:39:28;;;;;;;30.08;20.52;;;20.30;32.40;;;;;;4992430;28;20440;-75
2021/08/04 08:41:54;;;;;;;31.33;20.23;;;20.20;32.30;;;;;;4992204;28;20395;-74
2021/08/04 08:44:22;;;;;;;28.48;19.23;;;20.50;32.30;;;;;;4992080;28;20393;-76
2021/08/04 08:46:48;;;;;;;30.07;21.70;;;20.60;32.40;;;;;;4992159;28;20435;-74
2021/08/04 08:49:14;;;;;;;33.63;20.27;;;20.90;31.90;;;;;;4992326;28;20397;-75
2021/08/04 08:51:39;;;;;;;31.88;20.90;;;20.80;31.50;;;;;;4992552;28;20457;-75
2021/08/04 08:54:06;;;;;;;29.10;19.52;;;20.70;31.40;;;;;;4992338;28;20389;-74
2021/08/04 08:56:31;;;;;;;20.65;15.52;;;20.70;29.90;;;;;;4992090;28;20470;-75
2021/08/04 08:58:57;;;;;;;19.50;14.70;;;20.80;26.80;;;;;;4991980;28;20943;-76
2021/08/04 09:01:37;;;;;;;25.88;14.73;;;20.80;26.50;;;;;;4991453;28;20397;-74
2021/08/04 09:04:07;;;;;;;18.27;12.57;;;20.80;25.30;;;;;;4991345;28;20910;-74
2021/08/04 09:06:44;;;;;;;19.20;12.80;;;20.70;24.90;;;;;;5006619;28;20879;-74
2021/08/04 09:09:19;;;;;;;18.73;12.82;;;20.60;25.90;;;;;;4985698;28;20406;-74
2021/08/04 09:11:46;;;;;;;21.20;14.40;;;20.60;26.20;;;;;;4991745;28;20383;-75
2021/08/04 09:14:12;;;;;;;21.80;15.10;;;20.70;26.30;;;;;;5002213;23;20489;-76
2021/08/04 09:16:39;;;;;;;23.07;15.00;;;20.80;27.00;;;;;;4995464;28;20784;-76
2021/08/04 09:19:20;;;;;;;17.33;13.23;;;20.90;26.20;;;;;;4995194;28;20391;-76
2021/08/04 09:22:04;;;;;;;20.67;12.63;;;21.10;25.00;;;;;;4996217;28;20402;-77
2021/08/04 09:24:50;;;;;;;17.88;12.15;;;21.20;25.70;;;;;;5001105;28;20470;-76
2021/08/04 09:27:16;;;;;;;21.70;13.20;;;21.40;24.70;;;;;;4995396;28;20509;-78
2021/08/04 09:29:58;;;;;;;20.17;12.77;;;21.60;24.00;;;;;;4994521;28;20442;-77
2021/08/04 09:32:26;;;;;;;17.55;11.65;;;21.90;23.60;;;;;;4995980;28;20398;-76
2021/08/04 09:34:52;;;;;;;20.00;12.55;;;21.90;23.20;;;;;;5011588;28;20398;-77
2021/08/04 09:37:19;;;;;;;13.20;10.30;;;21.80;23.70;;;;;;4994430;28;20449;-75
2021/08/04 09:39:57;;;;;;;10.82;7.68;;;22.20;22.50;;;;;;4993739;28;20402;-76
2021/08/04 09:42:41;;;;;;;10.48;7.30;;;22.30;20.00;;;;;;4995888;28;20399;-74
2021/08/04 09:45:08;;;;;;;12.63;7.90;;;22.40;20.40;;;;;;4989324;28;20394;-75
2021/08/04 09:47:34;;;;;;;10.68;8.20;;;22.60;20.80;;;;;;4994438;28;20406;-75
2021/08/04 09:50:01;;;;;;;12.55;8.60;;;22.70;21.60;;;;;;4994638;28;20414;-74
2021/08/04 09:52:30;;;;;;;13.40;10.00;;;22.90;21.70;;;;;;4996842;28;20382;-74
2021/08/04 09:55:10;;;;;;;14.20;9.13;;;23.00;20.40;;;;;;4996233;28;20395;-74
2021/08/04 09:57:55;;;;;;;11.00;8.53;;;23.10;20.50;;;;;;4998665;28;20485;-72
2021/08/04 10:00:22;;;;;;;14.07;9.63;;;23.30;19.90;;;;;;4979377;28;20396;-74
2021/08/04 10:02:48;;;;;;;20.35;10.15;;;23.00;19.60;;;;;;4974446;28;20789;-75
2021/08/04 10:05:21;;;;;;;14.60;9.40;;;23.00;19.80;;;;;;4992625;28;20422;-75
2021/08/04 10:08:03;;;;;;;17.38;8.85;;;23.10;19.90;;;;;;5011520;28;20418;-75
2021/08/04 10:10:39;;;;;;;11.02;8.63;;;23.10;20.00;;;;;;4993638;28;20430;-75
2021/08/04 10:13:07;;;;;;;10.93;7.53;;;23.40;19.90;;;;;;4994949;28;20382;-75
2021/08/04 10:15:41;;;;;;;8.75;7.72;;;23.30;18.90;;;;;;5010895;28;20501;-75
2021/08/04 10:18:12;;;;;;;12.77;7.20;;;23.10;19.10;;;;;;4994105;28;20390;-75
2021/08/04 10:20:38;;;;;;;14.68;6.57;;;23.40;19.40;;;;;;4972617;28;20409;-75
2021/08/04 10:23:04;;;;;;;10.98;8.13;;;23.80;18.20;;;;;;4973561;28;20400;-74
2021/08/04 10:25:32;;;;;;;10.60;7.43;;;23.60;17.10;;;;;;4992921;28;20906;-75
2021/08/04 10:28:00;;;;;;;9.18;6.95;;;23.20;18.10;;;;;;4992634;28;20468;-75
2021/08/04 10:30:26;;;;;;;9.98;6.20;;;23.20;18.40;;;;;;4993161;28;20817;-75
2021/08/04 10:32:51;;;;;;;9.20;6.60;;;23.20;18.50;;;;;;5009986;28;20482;-76
2021/08/04 10:35:17;;;;;;;9.60;6.72;;;23.40;17.80;;;;;;4996562;28;20442;-74
2021/08/04 10:37:43;;;;;;;8.18;7.03;;;23.40;17.70;;;;;;5000472;28;20422;-75
2021/08/04 10:40:10;;;;;;;10.13;6.70;;;23.40;17.60;;;;;;4999372;28;20481;-75
2021/08/04 10:42:44;;;;;;;6.70;5.93;;;23.50;16.90;;;;;;4996332;28;20422;-76
2021/08/04 10:45:27;;;;;;;7.47;6.10;;;23.50;17.70;;;;;;4995174;28;20447;-76
2021/08/04 10:48:15;;;;;;;8.80;6.00;;;23.50;17.30;;;;;;4992640;28;20406;-77
2021/08/04 10:51:10;;;;;;;9.27;6.30;;;23.40;17.40;;;;;;4992310;28;20403;-76
2021/08/04 10:54:02;;;;;;;10.48;5.68;;;23.50;16.60;;;;;;4993609;28;20395;-75
2021/08/04 10:56:37;;;;;;;7.57;5.55;;;23.60;17.10;;;;;;4976333;28;20391;-75
2021/08/04 10:59:08;;;;;;;8.10;5.40;;;23.60;15.80;;;;;;5000872;28;20393;-76
2021/08/04 11:01:41;;;;;;;6.10;5.30;;;23.90;14.40;;;;;;5000664;28;20887;-75
2021/08/04 11:04:11;;;;;;;7.28;4.88;;;23.90;13.50;;;;;;4997775;28;20442;-76
2021/08/04 11:07:07;;;;;;;7.28;5.40;;;23.90;14.80;;;;;;4995689;28;20402;-75
2021/08/04 11:10:00;;;;;;;9.50;5.75;;;23.70;14.90;;;;;;4981962;28;20918;-76
2021/08/04 11:12:35;;;;;;;8.40;5.30;;;23.80;14.90;;;;;;4992051;28;20398;-75
2021/08/04 11:15:02;;;;;;;7.13;4.88;;;23.90;14.90;;;;;;5013330;28;20428;-74
2021/08/04 11:17:30;;;;;;;6.57;5.00;;;24.10;14.80;;;;;;4997989;28;20413;-76
2021/08/04 11:20:06;;;;;;;6.65;5.30;;;24.40;15.40;;;;;;4998782;28;20421;-77
2021/08/04 11:22:34;;;;;;;6.10;5.20;;;24.30;13.50;;;;;;4997520;28;20398;-75
2021/08/04 11:25:32;;;;;;;6.33;5.10;;;24.00;14.30;;;;;;4995482;28;20413;-76
2021/08/04 11:27:58;;;;;;;6.80;5.30;;;23.90;15.50;;;;;;5009676;28;20413;-75
2021/08/04 11:30:33;;;;;;;7.38;5.50;;;24.10;14.70;;;;;;4995832;28;20512;-75
2021/08/04 11:33:18;;;;;;;9.33;6.30;;;24.10;15.00;;;;;;5009635;28;20460;-75
2021/08/04 11:36:02;;;;;;;8.10;5.85;;;24.60;14.10;;;;;;4994693;28;20381;-75
2021/08/04 11:38:39;;;;;;;6.18;5.10;;;24.70;13.80;;;;;;4994458;28;20759;-74
2021/08/04 11:41:20;;;;;;;8.80;5.97;;;24.90;14.20;;;;;;5009891;28;20578;-74
2021/08/04 11:43:47;;;;;;;10.90;5.40;;;24.90;14.10;;;;;;5009711;28;20441;-76
2021/08/04 11:46:49;;;;;;;7.55;5.20;;;24.70;14.40;;;;;;5010853;28;20760;-75
2021/08/04 11:49:18;;;;;;;5.20;4.70;;;24.60;15.40;;;;;;5009536;28;20406;-74
2021/08/04 11:51:48;;;;;;;9.20;5.30;;;24.60;14.70;;;;;;4993683;28;20441;-75
2021/08/04 11:54:15;;;;;;;8.20;5.55;;;24.70;14.80;;;;;;4996025;28;20394;-75
2021/08/04 11:56:47;;;;;;;10.60;5.25;;;24.70;14.00;;;;;;4995499;28;20406;-75
2021/08/04 11:59:14;;;;;;;7.20;4.95;;;24.50;14.10;;;;;;5005776;28;20436;-74
2021/08/04 12:01:39;;;;;;;7.77;5.80;;;24.60;13.90;;;;;;4999025;28;20513;-73
2021/08/04 12:04:10;;;;;;;7.40;5.27;;;24.60;13.90;;;;;;5019539;28;20397;-75
2021/08/04 12:06:39;;;;;;;7.05;5.38;;;24.80;14.70;;;;;;5008449;28;20394;-75
2021/08/04 12:09:23;;;;;;;6.28;5.50;;;24.50;13.30;;;;;;5005507;28;20386;-74
2021/08/04 12:11:49;;;;;;;8.67;5.10;;;24.50;13.50;;;;;;5011666;28;20409;-76
2021/08/04 12:14:17;;;;;;;6.68;5.20;;;24.40;14.80;;;;;;5010536;28;20409;-74
2021/08/04 12:17:20;;;;;;;6.43;5.10;;;24.90;13.80;;;;;;5012074;28;20394;-83
2021/08/04 12:19:45;;;;;;;8.25;5.22;;;25.10;13.40;;;;;;4984506;28;20506;-76
2021/08/04 12:22:27;;;;;;;7.97;5.40;;;25.20;12.60;;;;;;4996873;28;20426;-76
2021/08/04 12:24:58;;;;;;;7.57;6.00;;;25.10;13.20;;;;;;4995625;28;20804;-75
2021/08/04 12:27:37;;;;;;;6.72;5.97;;;25.10;13.30;;;;;;4994428;28;20771;-78
2021/08/04 12:30:29;;;;;;;11.40;5.45;;;25.00;13.50;;;;;;4995010;28;20413;-77
2021/08/04 12:32:59;;;;;;;7.97;6.50;;;24.60;14.60;;;;;;4995011;28;20386;-77
2021/08/04 12:35:40;;;;;;;8.97;8.00;;;24.30;15.90;;;;;;5009032;28;20406;-76
2021/08/04 12:38:13;;;;;;;8.75;6.85;;;24.00;16.10;;;;;;4996768;28;20403;-77
2021/08/04 12:40:39;;;;;;;8.30;6.22;;;23.70;17.00;;;;;;5021152;28;20398;-77